sensor_id;sensor_type;location;lat;lon;timestamp;temperature;humidity
47600;DHT22;33323;52.124;6.018;2023-11-19T00:01:06;12.20;99.90
47600;DHT22;33323;52.124;6.018;2023-11-19T00:03:33;12.20;99.90
47600;DHT22;33323;52.124;6.018;2023-11-19T00:06:01;12.20;99.90
47600;DHT22;33323;52.124;6.018;2023-11-19T00:08:31;12.30;99.90
47600;DHT22;33323;52.124;6.018;2023-11-19T00:10:58;12.30;99.90
47600;DHT22;33323;52.124;6.018;2023-11-19T00:13:25;12.30;99.90
47600;DHT22;33323;52.124;6.018;2023-11-19T00:15:52;12.40;99.90
47600;DHT22;33323;52.124;6.018;2023-11-19T00:18:20;12.40;99.90
47600;DHT22;33323;52.124;6.018;2023-11-19T00:20:47;12.40;99.90
47600;DHT22;33323;52.124;6.018;2023-11-19T00:23:14;12.30;99.90
47600;DHT22;33323;52.124;6.018;2023-11-19T00:25:42;12.40;99.90
47600;DHT22;33323;52.124;6.018;2023-11-19T00:28:09;12.40;99.90
47600;DHT22;33323;52.124;6.018;2023-11-19T00:30:36;12.40;99.90
47600;DHT22;33323;52.124;6.018;2023-11-19T00:33:03;12.40;99.90
47600;DHT22;33323;52.124;6.018;2023-11-19T00:35:30;12.50;99.90
47600;DHT22;33323;52.124;6.018;2023-11-19T00:37:58;12.40;99.90
47600;DHT22;33323;52.124;6.018;2023-11-19T00:40:25;12.50;99.90
47600;DHT22;33323;52.124;6.018;2023-11-19T00:42:52;12.50;99.90
47600;DHT22;33323;52.124;6.018;2023-11-19T00:45:19;12.50;99.90
47600;DHT22;33323;52.124;6.018;2023-11-19T00:47:46;12.50;99.90
47600;DHT22;33323;52.124;6.018;2023-11-19T00:50:14;12.50;99.90
47600;DHT22;33323;52.124;6.018;2023-11-19T00:52:41;12.60;99.90
47600;DHT22;33323;52.124;6.018;2023-11-19T00:55:09;12.60;99.90
47600;DHT22;33323;52.124;6.018;2023-11-19T00:57:39;12.60;99.90
47600;DHT22;33323;52.124;6.018;2023-11-19T01:00:08;12.60;99.90
47600;DHT22;33323;52.124;6.018;2023-11-19T01:02:45;12.60;99.90
47600;DHT22;33323;52.124;6.018;2023-11-19T01:05:13;12.50;99.90
47600;DHT22;33323;52.124;6.018;2023-11-19T01:07:47;12.50;99.90
47600;DHT22;33323;52.124;6.018;2023-11-19T01:10:14;12.50;99.90
47600;DHT22;33323;52.124;6.018;2023-11-19T01:12:42;12.50;99.90
47600;DHT22;33323;52.124;6.018;2023-11-19T01:15:10;12.50;99.90
47600;DHT22;33323;52.124;6.018;2023-11-19T01:17:38;12.50;99.90
47600;DHT22;33323;52.124;6.018;2023-11-19T01:20:05;12.50;99.90
47600;DHT22;33323;52.124;6.018;2023-11-19T01:22:33;12.50;99.90
47600;DHT22;33323;52.124;6.018;2023-11-19T01:25:00;12.50;99.90
47600;DHT22;33323;52.124;6.018;2023-11-19T01:27:27;12.50;99.90
47600;DHT22;33323;52.124;6.018;2023-11-19T01:29:54;12.60;99.90
47600;DHT22;33323;52.124;6.018;2023-11-19T01:32:21;12.50;99.90
47600;DHT22;33323;52.124;6.018;2023-11-19T01:34:50;12.50;99.90
47600;DHT22;33323;52.124;6.018;2023-11-19T01:37:17;12.50;99.90
47600;DHT22;33323;52.124;6.018;2023-11-19T01:39:45;12.50;99.90
47600;DHT22;33323;52.124;6.018;2023-11-19T01:42:23;12.40;99.90
47600;DHT22;33323;52.124;6.018;2023-11-19T01:45:37;12.50;99.90
47600;DHT22;33323;52.124;6.018;2023-11-19T01:48:05;12.50;99.90
47600;DHT22;33323;52.124;6.018;2023-11-19T01:50:33;12.50;99.90
47600;DHT22;33323;52.124;6.018;2023-11-19T01:53:00;12.50;99.90
47600;DHT22;33323;52.124;6.018;2023-11-19T01:55:28;12.50;99.90
47600;DHT22;33323;52.124;6.018;2023-11-19T01:57:59;12.50;99.90
47600;DHT22;33323;52.124;6.018;2023-11-19T02:00:28;12.50;99.90
47600;DHT22;33323;52.124;6.018;2023-11-19T02:02:55;12.50;99.90
47600;DHT22;33323;52.124;6.018;2023-11-19T02:05:23;12.40;99.90
47600;DHT22;33323;52.124;6.018;2023-11-19T02:07:50;12.50;99.90
47600;DHT22;33323;52.124;6.018;2023-11-19T02:10:18;12.50;99.90
47600;DHT22;33323;52.124;6.018;2023-11-19T02:12:46;12.50;99.90
47600;DHT22;33323;52.124;6.018;2023-11-19T02:15:13;12.50;99.90
47600;DHT22;33323;52.124;6.018;2023-11-19T02:17:40;12.50;99.90
47600;DHT22;33323;52.124;6.018;2023-11-19T02:20:08;12.50;99.90
47600;DHT22;33323;52.124;6.018;2023-11-19T02:22:39;12.50;99.90
47600;DHT22;33323;52.124;6.018;2023-11-19T02:25:29;12.50;99.90
47600;DHT22;33323;52.124;6.018;2023-11-19T02:27:59;12.50;99.90
47600;DHT22;33323;52.124;6.018;2023-11-19T02:30:27;12.50;99.90
47600;DHT22;33323;52.124;6.018;2023-11-19T02:32:56;12.50;99.90
47600;DHT22;33323;52.124;6.018;2023-11-19T02:35:25;12.50;99.90
47600;DHT22;33323;52.124;6.018;2023-11-19T02:37:58;12.50;99.90
47600;DHT22;33323;52.124;6.018;2023-11-19T02:40:26;12.50;99.90
47600;DHT22;33323;52.124;6.018;2023-11-19T02:42:53;12.40;99.90
47600;DHT22;33323;52.124;6.018;2023-11-19T02:45:23;12.40;99.90
47600;DHT22;33323;52.124;6.018;2023-11-19T02:47:51;12.40;99.90
47600;DHT22;33323;52.124;6.018;2023-11-19T02:50:19;12.40;99.90
47600;DHT22;33323;52.124;6.018;2023-11-19T02:52:54;12.40;99.90
47600;DHT22;33323;52.124;6.018;2023-11-19T02:55:25;12.30;99.90
47600;DHT22;33323;52.124;6.018;2023-11-19T02:57:54;12.30;99.90
47600;DHT22;33323;52.124;6.018;2023-11-19T03:00:23;12.30;99.90
47600;DHT22;33323;52.124;6.018;2023-11-19T03:02:51;12.30;99.90
47600;DHT22;33323;52.124;6.018;2023-11-19T03:05:44;12.20;99.90
47600;DHT22;33323;52.124;6.018;2023-11-19T03:08:11;12.30;99.90
47600;DHT22;33323;52.124;6.018;2023-11-19T03:10:49;12.30;99.90
47600;DHT22;33323;52.124;6.018;2023-11-19T03:13:16;12.20;99.90
47600;DHT22;33323;52.124;6.018;2023-11-19T03:15:44;12.20;99.90
47600;DHT22;33323;52.124;6.018;2023-11-19T03:18:12;12.20;99.90
47600;DHT22;33323;52.124;6.018;2023-11-19T03:20:39;12.20;99.90
47600;DHT22;33323;52.124;6.018;2023-11-19T03:23:07;12.20;99.90
47600;DHT22;33323;52.124;6.018;2023-11-19T03:25:34;12.20;99.90
47600;DHT22;33323;52.124;6.018;2023-11-19T03:28:04;12.20;99.90
47600;DHT22;33323;52.124;6.018;2023-11-19T03:30:31;12.10;99.90
47600;DHT22;33323;52.124;6.018;2023-11-19T03:33:00;12.10;99.90
47600;DHT22;33323;52.124;6.018;2023-11-19T03:35:28;12.10;99.90
47600;DHT22;33323;52.124;6.018;2023-11-19T03:37:56;12.10;99.90
47600;DHT22;33323;52.124;6.018;2023-11-19T03:40:23;12.10;99.90
47600;DHT22;33323;52.124;6.018;2023-11-19T03:42:52;12.10;99.90
47600;DHT22;33323;52.124;6.018;2023-11-19T03:45:19;12.10;99.90
47600;DHT22;33323;52.124;6.018;2023-11-19T03:47:47;12.00;99.90
47600;DHT22;33323;52.124;6.018;2023-11-19T03:50:16;12.00;99.90
47600;DHT22;33323;52.124;6.018;2023-11-19T03:52:46;12.00;99.90
47600;DHT22;33323;52.124;6.018;2023-11-19T03:55:13;11.90;99.90
47600;DHT22;33323;52.124;6.018;2023-11-19T03:57:40;11.80;99.90
47600;DHT22;33323;52.124;6.018;2023-11-19T04:00:07;11.80;99.90
47600;DHT22;33323;52.124;6.018;2023-11-19T04:02:40;11.70;99.90
47600;DHT22;33323;52.124;6.018;2023-11-19T04:05:07;11.70;99.90
47600;DHT22;33323;52.124;6.018;2023-11-19T04:07:36;11.70;99.90
47600;DHT22;33323;52.124;6.018;2023-11-19T04:10:04;11.60;99.90
47600;DHT22;33323;52.124;6.018;2023-11-19T04:12:32;11.50;99.90
47600;DHT22;33323;52.124;6.018;2023-11-19T04:14:59;11.50;99.90
47600;DHT22;33323;52.124;6.018;2023-11-19T04:17:27;11.50;99.90
47600;DHT22;33323;52.124;6.018;2023-11-19T04:19:55;11.50;99.90
47600;DHT22;33323;52.124;6.018;2023-11-19T04:22:22;11.40;99.90
47600;DHT22;33323;52.124;6.018;2023-11-19T04:24:51;11.40;99.90
47600;DHT22;33323;52.124;6.018;2023-11-19T04:27:18;11.40;99.90
47600;DHT22;33323;52.124;6.018;2023-11-19T04:29:45;11.40;99.90
47600;DHT22;33323;52.124;6.018;2023-11-19T04:32:14;11.40;99.90
47600;DHT22;33323;52.124;6.018;2023-11-19T04:34:42;11.40;99.90
47600;DHT22;33323;52.124;6.018;2023-11-19T04:37:09;11.40;99.90
47600;DHT22;33323;52.124;6.018;2023-11-19T04:39:39;11.30;99.90
47600;DHT22;33323;52.124;6.018;2023-11-19T04:42:06;11.40;99.90
47600;DHT22;33323;52.124;6.018;2023-11-19T04:44:33;11.40;99.90
47600;DHT22;33323;52.124;6.018;2023-11-19T04:47:00;11.50;99.90
47600;DHT22;33323;52.124;6.018;2023-11-19T04:49:28;11.50;99.90
47600;DHT22;33323;52.124;6.018;2023-11-19T04:51:55;11.40;99.90
47600;DHT22;33323;52.124;6.018;2023-11-19T04:54:22;11.50;99.90
47600;DHT22;33323;52.124;6.018;2023-11-19T04:56:49;11.50;99.90
47600;DHT22;33323;52.124;6.018;2023-11-19T04:59:17;11.50;99.90
47600;DHT22;33323;52.124;6.018;2023-11-19T05:01:47;11.40;99.90
47600;DHT22;33323;52.124;6.018;2023-11-19T05:04:14;11.50;99.90
47600;DHT22;33323;52.124;6.018;2023-11-19T05:06:42;11.40;99.90
47600;DHT22;33323;52.124;6.018;2023-11-19T05:09:09;11.40;99.90
47600;DHT22;33323;52.124;6.018;2023-11-19T05:11:38;11.40;99.90
47600;DHT22;33323;52.124;6.018;2023-11-19T05:14:17;11.40;99.90
47600;DHT22;33323;52.124;6.018;2023-11-19T05:16:48;11.30;99.90
47600;DHT22;33323;52.124;6.018;2023-11-19T05:19:16;11.30;99.90
47600;DHT22;33323;52.124;6.018;2023-11-19T05:21:43;11.30;99.90
47600;DHT22;33323;52.124;6.018;2023-11-19T05:24:11;11.20;99.90
47600;DHT22;33323;52.124;6.018;2023-11-19T05:26:41;11.20;99.90
47600;DHT22;33323;52.124;6.018;2023-11-19T05:29:08;11.20;99.90
47600;DHT22;33323;52.124;6.018;2023-11-19T05:31:35;11.20;99.90
47600;DHT22;33323;52.124;6.018;2023-11-19T05:34:04;11.20;99.90
47600;DHT22;33323;52.124;6.018;2023-11-19T05:36:31;11.20;99.90
47600;DHT22;33323;52.124;6.018;2023-11-19T05:38:59;11.20;99.90
47600;DHT22;33323;52.124;6.018;2023-11-19T05:41:26;11.20;99.90
47600;DHT22;33323;52.124;6.018;2023-11-19T05:43:54;11.10;99.90
47600;DHT22;33323;52.124;6.018;2023-11-19T05:46:21;11.10;99.90
47600;DHT22;33323;52.124;6.018;2023-11-19T05:48:48;11.10;99.90
47600;DHT22;33323;52.124;6.018;2023-11-19T05:51:16;11.10;99.90
47600;DHT22;33323;52.124;6.018;2023-11-19T05:53:43;11.10;99.90
47600;DHT22;33323;52.124;6.018;2023-11-19T05:56:12;11.10;99.90
47600;DHT22;33323;52.124;6.018;2023-11-19T05:58:40;11.10;99.90
47600;DHT22;33323;52.124;6.018;2023-11-19T06:01:07;11.20;99.90
47600;DHT22;33323;52.124;6.018;2023-11-19T06:03:35;11.10;99.90
47600;DHT22;33323;52.124;6.018;2023-11-19T06:06:04;11.20;99.90
47600;DHT22;33323;52.124;6.018;2023-11-19T06:08:32;11.30;99.90
47600;DHT22;33323;52.124;6.018;2023-11-19T06:10:59;11.20;99.90
47600;DHT22;33323;52.124;6.018;2023-11-19T06:13:28;11.20;99.90
47600;DHT22;33323;52.124;6.018;2023-11-19T06:15:58;11.20;99.90
47600;DHT22;33323;52.124;6.018;2023-11-19T06:18:25;11.20;99.90
47600;DHT22;33323;52.124;6.018;2023-11-19T06:20:52;11.20;99.90
47600;DHT22;33323;52.124;6.018;2023-11-19T06:23:19;11.30;99.90
47600;DHT22;33323;52.124;6.018;2023-11-19T06:25:46;11.20;99.90
47600;DHT22;33323;52.124;6.018;2023-11-19T06:28:13;11.20;99.90
47600;DHT22;33323;52.124;6.018;2023-11-19T06:30:41;11.20;99.90
47600;DHT22;33323;52.124;6.018;2023-11-19T06:33:12;11.20;99.90
47600;DHT22;33323;52.124;6.018;2023-11-19T06:35:39;11.20;99.90
47600;DHT22;33323;52.124;6.018;2023-11-19T06:38:07;11.20;99.90
47600;DHT22;33323;52.124;6.018;2023-11-19T06:40:34;11.20;99.90
47600;DHT22;33323;52.124;6.018;2023-11-19T06:43:02;11.20;99.90
47600;DHT22;33323;52.124;6.018;2023-11-19T06:45:30;11.20;99.90
47600;DHT22;33323;52.124;6.018;2023-11-19T06:48:01;11.20;99.90
47600;DHT22;33323;52.124;6.018;2023-11-19T06:50:30;11.20;99.90
47600;DHT22;33323;52.124;6.018;2023-11-19T06:52:58;11.20;99.90
47600;DHT22;33323;52.124;6.018;2023-11-19T06:55:26;11.20;99.90
47600;DHT22;33323;52.124;6.018;2023-11-19T06:57:54;11.20;99.90
47600;DHT22;33323;52.124;6.018;2023-11-19T07:00:22;11.20;99.90
47600;DHT22;33323;52.124;6.018;2023-11-19T07:02:49;11.20;99.90
47600;DHT22;33323;52.124;6.018;2023-11-19T07:05:18;11.20;99.90
47600;DHT22;33323;52.124;6.018;2023-11-19T07:07:45;11.20;99.90
47600;DHT22;33323;52.124;6.018;2023-11-19T07:10:13;11.20;99.90
47600;DHT22;33323;52.124;6.018;2023-11-19T07:12:40;11.10;99.90
47600;DHT22;33323;52.124;6.018;2023-11-19T07:15:09;11.20;99.90
47600;DHT22;33323;52.124;6.018;2023-11-19T07:17:36;11.20;99.90
47600;DHT22;33323;52.124;6.018;2023-11-19T07:20:04;11.10;99.90
47600;DHT22;33323;52.124;6.018;2023-11-19T07:22:32;11.10;99.90
47600;DHT22;33323;52.124;6.018;2023-11-19T07:24:58;11.20;99.90
47600;DHT22;33323;52.124;6.018;2023-11-19T07:27:26;11.20;99.90
47600;DHT22;33323;52.124;6.018;2023-11-19T07:29:53;11.20;99.90
47600;DHT22;33323;52.124;6.018;2023-11-19T07:32:20;11.20;99.90
47600;DHT22;33323;52.124;6.018;2023-11-19T07:34:47;11.30;99.90
47600;DHT22;33323;52.124;6.018;2023-11-19T07:37:14;11.30;99.90
47600;DHT22;33323;52.124;6.018;2023-11-19T07:39:43;11.30;99.90
47600;DHT22;33323;52.124;6.018;2023-11-19T07:42:10;11.30;99.90
47600;DHT22;33323;52.124;6.018;2023-11-19T07:44:37;11.30;99.90
47600;DHT22;33323;52.124;6.018;2023-11-19T07:47:04;11.30;99.90
47600;DHT22;33323;52.124;6.018;2023-11-19T07:49:32;11.30;99.90
47600;DHT22;33323;52.124;6.018;2023-11-19T07:51:59;11.30;99.90
47600;DHT22;33323;52.124;6.018;2023-11-19T07:54:26;11.40;99.90
47600;DHT22;33323;52.124;6.018;2023-11-19T07:56:53;11.40;99.90
47600;DHT22;33323;52.124;6.018;2023-11-19T07:59:21;11.40;99.90
47600;DHT22;33323;52.124;6.018;2023-11-19T08:01:48;11.40;99.90
47600;DHT22;33323;52.124;6.018;2023-11-19T08:04:15;11.40;99.90
47600;DHT22;33323;52.124;6.018;2023-11-19T08:06:43;11.40;99.90
47600;DHT22;33323;52.124;6.018;2023-11-19T08:09:10;11.40;99.90
47600;DHT22;33323;52.124;6.018;2023-11-19T08:11:41;11.40;99.90
47600;DHT22;33323;52.124;6.018;2023-11-19T08:14:09;11.40;99.90
47600;DHT22;33323;52.124;6.018;2023-11-19T08:16:36;11.30;99.90
47600;DHT22;33323;52.124;6.018;2023-11-19T08:19:04;11.30;99.90
47600;DHT22;33323;52.124;6.018;2023-11-19T08:21:31;11.30;99.90
47600;DHT22;33323;52.124;6.018;2023-11-19T08:23:59;11.30;99.90
47600;DHT22;33323;52.124;6.018;2023-11-19T08:26:26;11.30;99.90
47600;DHT22;33323;52.124;6.018;2023-11-19T08:28:53;11.30;99.90
47600;DHT22;33323;52.124;6.018;2023-11-19T08:31:20;11.30;99.90
47600;DHT22;33323;52.124;6.018;2023-11-19T08:33:47;11.30;99.90
47600;DHT22;33323;52.124;6.018;2023-11-19T08:36:17;11.20;99.90
47600;DHT22;33323;52.124;6.018;2023-11-19T08:38:44;11.30;99.90
47600;DHT22;33323;52.124;6.018;2023-11-19T08:41:12;11.40;99.90
47600;DHT22;33323;52.124;6.018;2023-11-19T08:43:39;11.40;99.90
47600;DHT22;33323;52.124;6.018;2023-11-19T08:46:11;11.50;99.90
47600;DHT22;33323;52.124;6.018;2023-11-19T08:48:38;11.50;99.90
47600;DHT22;33323;52.124;6.018;2023-11-19T08:51:06;11.60;99.90
47600;DHT22;33323;52.124;6.018;2023-11-19T08:53:34;11.70;99.90
47600;DHT22;33323;52.124;6.018;2023-11-19T08:56:01;11.80;99.90
47600;DHT22;33323;52.124;6.018;2023-11-19T08:58:30;11.80;99.90
47600;DHT22;33323;52.124;6.018;2023-11-19T09:00:58;11.80;99.90
47600;DHT22;33323;52.124;6.018;2023-11-19T09:03:25;11.80;99.90
47600;DHT22;33323;52.124;6.018;2023-11-19T09:05:54;11.80;99.90
47600;DHT22;33323;52.124;6.018;2023-11-19T09:08:21;11.90;99.90
47600;DHT22;33323;52.124;6.018;2023-11-19T09:10:49;11.90;99.90
47600;DHT22;33323;52.124;6.018;2023-11-19T09:13:16;11.90;99.90
47600;DHT22;33323;52.124;6.018;2023-11-19T09:15:43;11.90;99.90
47600;DHT22;33323;52.124;6.018;2023-11-19T09:18:11;11.90;99.90
47600;DHT22;33323;52.124;6.018;2023-11-19T09:20:38;11.80;99.90
47600;DHT22;33323;52.124;6.018;2023-11-19T09:23:06;11.90;99.90
47600;DHT22;33323;52.124;6.018;2023-11-19T09:25:35;11.90;99.90
47600;DHT22;33323;52.124;6.018;2023-11-19T09:28:06;12.00;99.90
47600;DHT22;33323;52.124;6.018;2023-11-19T09:30:36;12.00;99.90
47600;DHT22;33323;52.124;6.018;2023-11-19T09:33:03;12.10;99.90
47600;DHT22;33323;52.124;6.018;2023-11-19T09:35:30;12.00;99.90
47600;DHT22;33323;52.124;6.018;2023-11-19T09:37:58;12.10;99.90
47600;DHT22;33323;52.124;6.018;2023-11-19T09:40:28;12.10;99.90
47600;DHT22;33323;52.124;6.018;2023-11-19T09:42:55;12.10;99.90
47600;DHT22;33323;52.124;6.018;2023-11-19T09:45:27;12.10;99.90
47600;DHT22;33323;52.124;6.018;2023-11-19T09:47:57;12.20;99.90
47600;DHT22;33323;52.124;6.018;2023-11-19T09:50:25;12.20;99.90
47600;DHT22;33323;52.124;6.018;2023-11-19T09:52:53;12.20;99.90
47600;DHT22;33323;52.124;6.018;2023-11-19T09:55:20;12.20;99.90
47600;DHT22;33323;52.124;6.018;2023-11-19T09:57:48;12.30;99.90
47600;DHT22;33323;52.124;6.018;2023-11-19T10:00:17;12.40;99.90
47600;DHT22;33323;52.124;6.018;2023-11-19T10:02:49;12.40;99.90
47600;DHT22;33323;52.124;6.018;2023-11-19T10:05:18;12.40;99.90
47600;DHT22;33323;52.124;6.018;2023-11-19T10:07:47;12.40;99.90
47600;DHT22;33323;52.124;6.018;2023-11-19T10:10:16;12.40;99.90
47600;DHT22;33323;52.124;6.018;2023-11-19T10:12:46;12.40;99.90
47600;DHT22;33323;52.124;6.018;2023-11-19T10:15:25;12.40;99.90
47600;DHT22;33323;52.124;6.018;2023-11-19T10:17:57;12.40;99.90
47600;DHT22;33323;52.124;6.018;2023-11-19T10:20:25;12.50;99.90
47600;DHT22;33323;52.124;6.018;2023-11-19T10:22:53;12.50;99.90
47600;DHT22;33323;52.124;6.018;2023-11-19T10:25:26;12.60;99.90
47600;DHT22;33323;52.124;6.018;2023-11-19T10:27:55;12.70;99.90
47600;DHT22;33323;52.124;6.018;2023-11-19T10:30:24;12.70;99.90
47600;DHT22;33323;52.124;6.018;2023-11-19T10:35:54;12.60;99.90
47600;DHT22;33323;52.124;6.018;2023-11-19T10:38:26;12.60;99.90
47600;DHT22;33323;52.124;6.018;2023-11-19T10:40:54;12.60;99.90
47600;DHT22;33323;52.124;6.018;2023-11-19T10:43:22;12.50;99.90
47600;DHT22;33323;52.124;6.018;2023-11-19T10:45:50;12.40;99.90
47600;DHT22;33323;52.124;6.018;2023-11-19T10:48:17;12.40;99.90
47600;DHT22;33323;52.124;6.018;2023-11-19T10:50:47;12.50;99.90
47600;DHT22;33323;52.124;6.018;2023-11-19T10:53:18;12.50;99.90
47600;DHT22;33323;52.124;6.018;2023-11-19T10:55:47;12.60;99.90
47600;DHT22;33323;52.124;6.018;2023-11-19T10:58:16;12.60;99.90
47600;DHT22;33323;52.124;6.018;2023-11-19T11:00:57;12.70;99.90
47600;DHT22;33323;52.124;6.018;2023-11-19T11:03:39;12.70;99.90
47600;DHT22;33323;52.124;6.018;2023-11-19T11:06:07;12.70;99.90
47600;DHT22;33323;52.124;6.018;2023-11-19T11:08:39;12.80;99.90
47600;DHT22;33323;52.124;6.018;2023-11-19T11:11:08;12.80;99.90
47600;DHT22;33323;52.124;6.018;2023-11-19T11:13:37;12.80;99.90
47600;DHT22;33323;52.124;6.018;2023-11-19T11:16:05;12.70;99.90
47600;DHT22;33323;52.124;6.018;2023-11-19T11:18:34;12.80;99.90
47600;DHT22;33323;52.124;6.018;2023-11-19T11:21:14;12.70;99.90
47600;DHT22;33323;52.124;6.018;2023-11-19T11:33:29;12.70;99.90
47600;DHT22;33323;52.124;6.018;2023-11-19T11:38:40;12.80;99.90
47600;DHT22;33323;52.124;6.018;2023-11-19T11:41:24;12.80;99.90
47600;DHT22;33323;52.124;6.018;2023-11-19T11:43:56;12.80;99.90
47600;DHT22;33323;52.124;6.018;2023-11-19T11:49:05;12.80;99.90
47600;DHT22;33323;52.124;6.018;2023-11-19T11:54:11;12.90;99.90
47600;DHT22;33323;52.124;6.018;2023-11-19T11:57:03;13.00;99.90
47600;DHT22;33323;52.124;6.018;2023-11-19T12:02:17;13.30;99.90
47600;DHT22;33323;52.124;6.018;2023-11-19T12:04:51;13.40;99.90
47600;DHT22;33323;52.124;6.018;2023-11-19T12:07:24;13.30;99.90
47600;DHT22;33323;52.124;6.018;2023-11-19T12:10:05;13.10;99.90
47600;DHT22;33323;52.124;6.018;2023-11-19T12:12:35;13.00;99.90
47600;DHT22;33323;52.124;6.018;2023-11-19T12:15:09;13.10;99.90
47600;DHT22;33323;52.124;6.018;2023-11-19T12:17:41;13.20;99.90
47600;DHT22;33323;52.124;6.018;2023-11-19T12:20:12;13.40;99.90
47600;DHT22;33323;52.124;6.018;2023-11-19T12:22:42;13.50;99.90
47600;DHT22;33323;52.124;6.018;2023-11-19T12:25:11;13.60;99.90
47600;DHT22;33323;52.124;6.018;2023-11-19T12:27:43;13.50;99.90
47600;DHT22;33323;52.124;6.018;2023-11-19T12:30:22;13.30;99.90
47600;DHT22;33323;52.124;6.018;2023-11-19T12:32:52;13.20;99.90
47600;DHT22;33323;52.124;6.018;2023-11-19T12:35:23;13.20;99.90
47600;DHT22;33323;52.124;6.018;2023-11-19T12:37:51;13.20;99.90
47600;DHT22;33323;52.124;6.018;2023-11-19T12:40:24;13.30;99.90
47600;DHT22;33323;52.124;6.018;2023-11-19T12:42:52;13.20;99.90
47600;DHT22;33323;52.124;6.018;2023-11-19T12:45:21;13.20;99.90
47600;DHT22;33323;52.124;6.018;2023-11-19T12:48:04;13.20;99.90
47600;DHT22;33323;52.124;6.018;2023-11-19T12:50:54;13.20;99.90
47600;DHT22;33323;52.124;6.018;2023-11-19T12:53:24;13.10;99.90
47600;DHT22;33323;52.124;6.018;2023-11-19T12:55:52;13.00;99.90
47600;DHT22;33323;52.124;6.018;2023-11-19T12:58:33;13.00;99.90
47600;DHT22;33323;52.124;6.018;2023-11-19T13:01:03;13.00;99.90
47600;DHT22;33323;52.124;6.018;2023-11-19T13:03:36;13.00;99.90
47600;DHT22;33323;52.124;6.018;2023-11-19T13:06:10;12.90;99.90
47600;DHT22;33323;52.124;6.018;2023-11-19T13:08:42;12.80;99.90
47600;DHT22;33323;52.124;6.018;2023-11-19T13:11:12;12.90;99.90
47600;DHT22;33323;52.124;6.018;2023-11-19T13:14:00;12.90;99.90
47600;DHT22;33323;52.124;6.018;2023-11-19T13:16:28;13.00;99.90
47600;DHT22;33323;52.124;6.018;2023-11-19T13:18:56;12.90;99.90
47600;DHT22;33323;52.124;6.018;2023-11-19T13:21:24;12.90;99.90
47600;DHT22;33323;52.124;6.018;2023-11-19T13:23:51;12.90;99.90
47600;DHT22;33323;52.124;6.018;2023-11-19T13:26:18;12.90;99.90
47600;DHT22;33323;52.124;6.018;2023-11-19T13:28:46;12.90;99.90
47600;DHT22;33323;52.124;6.018;2023-11-19T13:31:14;12.90;99.90
47600;DHT22;33323;52.124;6.018;2023-11-19T13:33:42;12.90;99.90
47600;DHT22;33323;52.124;6.018;2023-11-19T13:36:09;12.90;99.90
47600;DHT22;33323;52.124;6.018;2023-11-19T13:38:40;12.90;99.90
47600;DHT22;33323;52.124;6.018;2023-11-19T13:41:08;12.90;99.90
47600;DHT22;33323;52.124;6.018;2023-11-19T13:43:37;12.90;99.90
47600;DHT22;33323;52.124;6.018;2023-11-19T13:46:05;12.90;99.90
47600;DHT22;33323;52.124;6.018;2023-11-19T13:48:32;12.90;99.90
47600;DHT22;33323;52.124;6.018;2023-11-19T13:50:59;12.80;99.90
47600;DHT22;33323;52.124;6.018;2023-11-19T13:53:27;12.90;99.90
47600;DHT22;33323;52.124;6.018;2023-11-19T13:55:55;12.90;99.90
47600;DHT22;33323;52.124;6.018;2023-11-19T13:58:22;12.80;99.90
47600;DHT22;33323;52.124;6.018;2023-11-19T14:00:49;12.80;99.90
47600;DHT22;33323;52.124;6.018;2023-11-19T14:03:19;12.80;99.90
47600;DHT22;33323;52.124;6.018;2023-11-19T14:05:46;12.70;99.90
47600;DHT22;33323;52.124;6.018;2023-11-19T14:08:14;12.70;99.90
47600;DHT22;33323;52.124;6.018;2023-11-19T14:10:51;12.60;99.90
47600;DHT22;33323;52.124;6.018;2023-11-19T14:13:19;12.50;99.90
47600;DHT22;33323;52.124;6.018;2023-11-19T14:15:46;12.50;99.90
47600;DHT22;33323;52.124;6.018;2023-11-19T14:18:16;12.30;99.90
47600;DHT22;33323;52.124;6.018;2023-11-19T14:20:44;12.20;99.90
47600;DHT22;33323;52.124;6.018;2023-11-19T14:23:11;12.10;99.90
47600;DHT22;33323;52.124;6.018;2023-11-19T14:25:38;12.00;99.90
47600;DHT22;33323;52.124;6.018;2023-11-19T14:28:05;12.00;99.90
47600;DHT22;33323;52.124;6.018;2023-11-19T14:30:33;12.00;99.90
47600;DHT22;33323;52.124;6.018;2023-11-19T14:33:01;12.10;99.90
47600;DHT22;33323;52.124;6.018;2023-11-19T14:35:30;12.10;99.90
47600;DHT22;33323;52.124;6.018;2023-11-19T14:37:57;12.10;99.90
47600;DHT22;33323;52.124;6.018;2023-11-19T14:40:24;12.10;99.90
47600;DHT22;33323;52.124;6.018;2023-11-19T14:42:55;12.10;99.90
47600;DHT22;33323;52.124;6.018;2023-11-19T14:45:22;12.00;99.90
47600;DHT22;33323;52.124;6.018;2023-11-19T14:47:49;12.00;99.90
47600;DHT22;33323;52.124;6.018;2023-11-19T14:50:16;12.00;99.90
47600;DHT22;33323;52.124;6.018;2023-11-19T14:52:43;12.00;99.90
47600;DHT22;33323;52.124;6.018;2023-11-19T14:55:11;12.00;99.90
47600;DHT22;33323;52.124;6.018;2023-11-19T14:57:38;12.00;99.90
47600;DHT22;33323;52.124;6.018;2023-11-19T15:00:06;12.00;99.90
47600;DHT22;33323;52.124;6.018;2023-11-19T15:02:41;12.00;99.90
47600;DHT22;33323;52.124;6.018;2023-11-19T15:05:08;12.00;99.90
47600;DHT22;33323;52.124;6.018;2023-11-19T15:07:40;11.90;99.90
47600;DHT22;33323;52.124;6.018;2023-11-19T15:10:07;11.90;99.90
47600;DHT22;33323;52.124;6.018;2023-11-19T15:12:39;12.00;99.90
47600;DHT22;33323;52.124;6.018;2023-11-19T15:15:09;11.90;99.90
47600;DHT22;33323;52.124;6.018;2023-11-19T15:17:36;11.90;99.90
47600;DHT22;33323;52.124;6.018;2023-11-19T15:20:04;11.90;99.90
47600;DHT22;33323;52.124;6.018;2023-11-19T15:22:32;11.80;99.90
47600;DHT22;33323;52.124;6.018;2023-11-19T15:24:59;11.80;99.90
47600;DHT22;33323;52.124;6.018;2023-11-19T15:27:26;11.80;99.90
47600;DHT22;33323;52.124;6.018;2023-11-19T15:29:54;11.70;99.90
47600;DHT22;33323;52.124;6.018;2023-11-19T15:32:21;11.70;99.90
47600;DHT22;33323;52.124;6.018;2023-11-19T15:34:48;11.70;99.90
47600;DHT22;33323;52.124;6.018;2023-11-19T15:37:15;11.70;99.90
47600;DHT22;33323;52.124;6.018;2023-11-19T15:39:42;11.70;99.90
47600;DHT22;33323;52.124;6.018;2023-11-19T15:42:10;11.70;99.90
47600;DHT22;33323;52.124;6.018;2023-11-19T15:44:38;11.70;99.90
47600;DHT22;33323;52.124;6.018;2023-11-19T15:47:06;11.70;99.90
47600;DHT22;33323;52.124;6.018;2023-11-19T15:49:34;11.70;99.90
47600;DHT22;33323;52.124;6.018;2023-11-19T15:52:01;11.70;99.90
47600;DHT22;33323;52.124;6.018;2023-11-19T15:54:28;11.70;99.90
47600;DHT22;33323;52.124;6.018;2023-11-19T15:56:55;11.70;99.90
47600;DHT22;33323;52.124;6.018;2023-11-19T15:59:22;11.70;99.90
47600;DHT22;33323;52.124;6.018;2023-11-19T16:01:49;11.70;99.90
47600;DHT22;33323;52.124;6.018;2023-11-19T16:04:17;11.70;99.90